Aviation Digital Data Service (ADDS)

Output produced by METARs form (0511 UTC 23 October 2014)
found at http://aviationweather.gov/adds/metars/
 
KBAF 230303Z 2303/2324 02017G23KT 5SM SHRA BR OVC012 
     FM230600 01015KT 1SM +RA BR OVC008 
     FM231100 01013G23KT 2SM -SHRA BR OVC015 
     FM231500 36012G21KT 3SM -SHRA BR OVC020 
     FM231800 36012G19KT P6SM -SHRA OVC015 
     FM232000 36011G18KT P6SM OVC015